createdAt,value
2017-12-01T00:00:33.802Z,0
2017-12-01T00:01:43.788Z,0
2017-12-01T00:02:53.521Z,0
2017-12-01T00:04:03.269Z,0
2017-12-01T00:05:12.991Z,0
2017-12-01T00:06:22.725Z,0
2017-12-01T00:07:32.725Z,0
2017-12-01T00:08:42.443Z,0
2017-12-01T00:09:52.247Z,0
2017-12-01T00:11:02.507Z,0
2017-12-01T00:12:12.601Z,0
2017-12-01T00:13:21.801Z,0
2017-12-01T00:14:31.781Z,0
2017-12-01T00:15:41.514Z,0
2017-12-01T00:16:50.976Z,0
2017-12-01T00:18:00.712Z,0
2017-12-01T00:19:10.699Z,0
2017-12-01T00:20:20.696Z,0
2017-12-01T00:21:30.435Z,0
2017-12-01T00:22:40.417Z,0
2017-12-01T00:23:50.152Z,0
2017-12-01T00:25:00.162Z,0
2017-12-01T00:26:09.946Z,0
2017-12-01T00:27:19.143Z,0
2017-12-01T00:28:29.129Z,0
2017-12-01T00:29:38.860Z,0
2017-12-01T00:30:48.580Z,0
2017-12-01T00:31:58.569Z,0
2017-12-01T00:33:08.559Z,0
2017-12-01T00:34:18.430Z,0
2017-12-01T00:35:28.294Z,0
2017-12-01T00:36:38.289Z,0
2017-12-01T00:37:48.275Z,0
2017-12-01T00:38:58.419Z,0
2017-12-01T00:40:08.135Z,0
2017-12-01T00:41:18.141Z,0
2017-12-01T00:42:27.591Z,0
2017-12-01T00:43:37.578Z,0
2017-12-01T00:44:47.564Z,0
2017-12-01T00:45:57.365Z,0
2017-12-01T00:47:06.826Z,0
2017-12-01T00:48:16.807Z,0
2017-12-01T00:49:26.528Z,0
2017-12-01T00:50:36.521Z,0
2017-12-01T00:51:46.516Z,0
2017-12-01T00:52:56.509Z,0
2017-12-01T00:54:05.988Z,0
2017-12-01T00:55:15.697Z,0
2017-12-01T00:56:25.416Z,0
2017-12-01T00:57:35.142Z,0
2017-12-01T00:58:44.599Z,0
2017-12-01T00:59:54.597Z,0
2017-12-01T01:01:04.574Z,0
2017-12-01T01:02:14.040Z,0
2017-12-01T01:03:23.509Z,0
2017-12-01T01:04:33.497Z,0
2017-12-01T01:05:43.485Z,0
2017-12-01T01:06:53.229Z,0
2017-12-01T01:08:02.972Z,0
2017-12-01T01:09:12.961Z,0
2017-12-01T01:10:22.996Z,0
2017-12-01T01:11:32.747Z,0
2017-12-01T01:12:42.730Z,0
2017-12-01T01:13:52.719Z,0
2017-12-01T01:15:02.449Z,0
2017-12-01T01:16:12.324Z,0
2017-12-01T01:17:22.047Z,0
2017-12-01T01:18:31.779Z,0
2017-12-01T01:19:41.787Z,0
2017-12-01T01:20:51.524Z,0
2017-12-01T01:22:01.512Z,0
2017-12-01T01:23:11.507Z,0
2017-12-01T01:24:21.511Z,0
2017-12-01T01:25:31.545Z,0
2017-12-01T01:26:41.553Z,0
2017-12-01T01:27:51.293Z,0
2017-12-01T01:29:01.028Z,0
2017-12-01T01:30:10.760Z,0
2017-12-01T01:31:20.484Z,0
2017-12-01T01:32:29.941Z,0
2017-12-01T01:33:39.662Z,0
2017-12-01T01:34:49.398Z,0
2017-12-01T01:35:59.119Z,0
2017-12-01T01:37:09.106Z,0
2017-12-01T01:38:18.840Z,0
2017-12-01T01:39:28.820Z,0
2017-12-01T01:40:38.022Z,0
2017-12-01T01:41:47.489Z,0
2017-12-01T01:42:57.484Z,0
2017-12-01T01:44:07.475Z,0
2017-12-01T01:45:17.202Z,0
2017-12-01T01:46:26.931Z,0
2017-12-01T01:47:36.663Z,0
2017-12-01T01:48:46.648Z,0
2017-12-01T01:49:56.194Z,0
2017-12-01T01:51:05.641Z,0
2017-12-01T01:52:15.364Z,0
2017-12-01T01:53:25.372Z,0
2017-12-01T01:54:35.381Z,0
2017-12-01T01:55:45.364Z,0
2017-12-01T01:56:55.361Z,0
2017-12-01T01:58:05.163Z,0
2017-12-01T01:59:14.912Z,0
2017-12-01T02:00:24.108Z,0
2017-12-01T02:01:33.874Z,0
2017-12-01T02:02:43.865Z,0
2017-12-01T02:03:53.742Z,0
2017-12-01T02:05:03.799Z,0
2017-12-01T02:06:13.535Z,0
2017-12-01T02:07:23.526Z,0
2017-12-01T02:08:33.514Z,0
2017-12-01T02:09:43.241Z,0
2017-12-01T02:10:52.756Z,0
2017-12-01T02:12:02.742Z,0
2017-12-01T02:13:12.739Z,0
2017-12-01T02:14:22.740Z,0
2017-12-01T02:15:32.465Z,0
2017-12-01T02:16:41.922Z,0
2017-12-01T02:17:51.651Z,0
2017-12-01T02:19:01.101Z,0
2017-12-01T02:20:10.830Z,0
2017-12-01T02:21:20.556Z,0
2017-12-01T02:22:30.012Z,0
2017-12-01T02:23:39.731Z,0
2017-12-01T02:24:49.184Z,0
2017-12-01T02:25:59.174Z,0
2017-12-01T02:27:09.167Z,0
2017-12-01T02:28:18.893Z,0
2017-12-01T02:29:28.344Z,0
2017-12-01T02:30:38.067Z,0
2017-12-01T02:31:47.795Z,0
2017-12-01T02:32:57.532Z,0
2017-12-01T02:34:07.550Z,0
2017-12-01T02:35:17.540Z,0
2017-12-01T02:36:27.009Z,0
2017-12-01T02:37:36.735Z,0
2017-12-01T02:38:46.734Z,0
2017-12-01T02:39:56.861Z,0
2017-12-01T02:41:06.325Z,0
2017-12-01T02:42:16.325Z,0
2017-12-01T02:43:26.312Z,0
2017-12-01T02:44:36.325Z,0
2017-12-01T02:45:46.049Z,0
2017-12-01T02:46:56.041Z,0
2017-12-01T02:48:06.051Z,0
2017-12-01T02:49:15.780Z,0
2017-12-01T02:50:25.242Z,0
2017-12-01T02:51:34.976Z,0
2017-12-01T02:52:44.976Z,0
2017-12-01T02:53:54.962Z,0
2017-12-01T02:55:04.696Z,0
2017-12-01T02:56:14.426Z,0
2017-12-01T02:57:24.426Z,0
2017-12-01T02:58:33.902Z,0
2017-12-01T02:59:43.895Z,0
2017-12-01T03:00:53.352Z,0
2017-12-01T03:02:03.073Z,0
2017-12-01T03:03:13.063Z,0
2017-12-01T03:04:23.054Z,0
2017-12-01T03:05:32.507Z,0
2017-12-01T03:06:42.229Z,0
2017-12-01T03:07:51.950Z,0
2017-12-01T03:09:01.407Z,0
2017-12-01T03:10:11.400Z,0
2017-12-01T03:11:21.401Z,0
2017-12-01T03:12:31.124Z,0
2017-12-01T03:13:40.854Z,0
2017-12-01T03:14:50.846Z,0
2017-12-01T03:16:00.307Z,0
2017-12-01T03:17:10.302Z,0
2017-12-01T03:18:20.289Z,0
2017-12-01T03:19:30.007Z,0
2017-12-01T03:20:40.007Z,0
2017-12-01T03:21:49.999Z,0
2017-12-01T03:22:59.732Z,0
2017-12-01T03:24:09.717Z,0
2017-12-01T03:25:19.167Z,0
2017-12-01T03:26:29.162Z,0
2017-12-01T03:27:38.951Z,0
2017-12-01T03:28:48.942Z,0
2017-12-01T03:29:58.665Z,0
2017-12-01T03:31:08.428Z,0
2017-12-01T03:32:18.420Z,0
2017-12-01T03:33:28.406Z,0
2017-12-01T03:34:38.130Z,0
2017-12-01T03:35:48.123Z,0
2017-12-01T03:36:57.841Z,0
2017-12-01T03:38:07.828Z,0
2017-12-01T03:39:17.554Z,0
2017-12-01T03:40:27.549Z,0
2017-12-01T03:41:37.010Z,0
2017-12-01T03:42:46.990Z,0
2017-12-01T03:43:56.979Z,0
2017-12-01T03:45:06.705Z,0
2017-12-01T03:46:16.426Z,0
2017-12-01T03:47:26.427Z,0
2017-12-01T03:48:36.426Z,0
2017-12-01T03:49:45.887Z,0
2017-12-01T03:50:55.613Z,0
2017-12-01T03:52:05.339Z,0
2017-12-01T03:53:15.068Z,0
2017-12-01T03:54:24.796Z,0
2017-12-01T03:55:34.521Z,0
2017-12-01T03:56:44.519Z,0
2017-12-01T03:57:54.517Z,0
2017-12-01T03:59:03.710Z,0
2017-12-01T04:00:13.437Z,0
2017-12-01T04:01:23.434Z,0
2017-12-01T04:02:33.450Z,0
2017-12-01T04:03:43.452Z,0
2017-12-01T04:04:53.439Z,0
2017-12-01T04:06:02.897Z,0
2017-12-01T04:07:12.874Z,0
2017-12-01T04:08:22.863Z,0
2017-12-01T04:09:32.589Z,0
2017-12-01T04:10:41.778Z,0
2017-12-01T04:11:51.771Z,0
2017-12-01T04:13:01.795Z,0
2017-12-01T04:14:11.523Z,0
2017-12-01T04:15:21.253Z,0
2017-12-01T04:16:30.712Z,0
2017-12-01T04:17:40.699Z,0
2017-12-01T04:18:50.162Z,0
2017-12-01T04:19:59.886Z,0
2017-12-01T04:21:09.881Z,0
2017-12-01T04:22:19.863Z,0
2017-12-01T04:23:29.585Z,0
2017-12-01T04:24:39.579Z,0
2017-12-01T04:25:49.034Z,0
2017-12-01T04:26:58.762Z,0
2017-12-01T04:28:08.751Z,0
2017-12-01T04:29:18.747Z,0
2017-12-01T04:30:28.618Z,0
2017-12-01T04:31:38.363Z,0
2017-12-01T04:32:48.084Z,0
2017-12-01T04:33:57.807Z,0
2017-12-01T04:35:07.542Z,0
2017-12-01T04:36:17.677Z,0
2017-12-01T04:37:27.409Z,0
2017-12-01T04:38:37.143Z,0
2017-12-01T04:39:47.128Z,0
2017-12-01T04:40:56.858Z,0
2017-12-01T04:42:06.600Z,0
2017-12-01T04:43:16.056Z,0
2017-12-01T04:44:26.047Z,0
2017-12-01T04:45:35.783Z,0
2017-12-01T04:46:45.765Z,0
2017-12-01T04:47:55.217Z,0
2017-12-01T04:49:04.678Z,0
2017-12-01T04:50:14.672Z,0
2017-12-01T04:51:24.667Z,0
2017-12-01T04:52:34.388Z,0
2017-12-01T04:53:44.167Z,0
2017-12-01T04:54:54.152Z,0
2017-12-01T04:56:04.144Z,0
2017-12-01T04:57:13.870Z,0
2017-12-01T04:58:23.599Z,0
2017-12-01T04:59:33.052Z,0
2017-12-01T05:00:43.046Z,0
2017-12-01T05:01:52.775Z,0
2017-12-01T05:03:02.807Z,0
2017-12-01T05:04:12.801Z,0
2017-12-01T05:05:22.522Z,0
2017-12-01T05:06:32.515Z,0
2017-12-01T05:07:42.237Z,0
2017-12-01T05:08:52.229Z,0
2017-12-01T05:10:02.228Z,0
2017-12-01T05:11:12.205Z,0
2017-12-01T05:12:22.213Z,0
2017-12-01T05:13:31.930Z,0
2017-12-01T05:14:41.442Z,0
2017-12-01T05:15:50.389Z,0
2017-12-01T05:17:00.115Z,0
2017-12-01T05:18:09.575Z,0
2017-12-01T05:19:19.306Z,0
2017-12-01T05:20:28.773Z,0
2017-12-01T05:21:38.542Z,0
2017-12-01T05:22:48.277Z,0
2017-12-01T05:23:58.024Z,0
2017-12-01T05:25:08.019Z,0
2017-12-01T05:26:17.756Z,0
2017-12-01T05:27:27.226Z,0
2017-12-01T05:28:37.219Z,0
2017-12-01T05:29:46.945Z,0
2017-12-01T05:30:57.177Z,0
2017-12-01T05:32:06.641Z,0
2017-12-01T05:33:16.648Z,0
2017-12-01T05:34:26.100Z,0
2017-12-01T05:35:35.828Z,0
2017-12-01T05:36:45.070Z,0
2017-12-01T05:37:55.055Z,0
2017-12-01T05:39:04.787Z,0
2017-12-01T05:40:14.784Z,0
2017-12-01T05:41:24.778Z,0
2017-12-01T05:42:34.574Z,0
2017-12-01T05:43:44.311Z,0
2017-12-01T05:44:54.034Z,0
2017-12-01T05:46:04.024Z,0
2017-12-01T05:47:14.017Z,0
2017-12-01T05:48:24.006Z,0
2017-12-01T05:49:33.727Z,0
2017-12-01T05:50:43.181Z,0
2017-12-01T05:51:52.909Z,0
2017-12-01T05:53:02.707Z,0
2017-12-01T05:54:12.157Z,0
2017-12-01T05:55:21.888Z,0
2017-12-01T05:56:31.895Z,0
2017-12-01T05:57:41.619Z,0
2017-12-01T05:58:51.083Z,0
2017-12-01T06:00:00.547Z,0
2017-12-01T06:01:10.539Z,0
2017-12-01T06:02:20.011Z,0
2017-12-01T06:03:29.752Z,0
2017-12-01T06:04:39.478Z,0
2017-12-01T06:05:49.206Z,0
2017-12-01T06:06:58.927Z,0
2017-12-01T06:08:08.924Z,0
2017-12-01T06:09:18.645Z,0
2017-12-01T06:10:28.415Z,0
2017-12-01T06:11:37.900Z,0
2017-12-01T06:12:47.623Z,0
2017-12-01T06:13:57.612Z,0
2017-12-01T06:15:07.484Z,0
2017-12-01T06:16:17.529Z,0
2017-12-01T06:17:27.544Z,0
2017-12-01T06:18:37.567Z,0
2017-12-01T06:19:47.560Z,0
2017-12-01T06:20:57.028Z,0
2017-12-01T06:22:06.764Z,0
2017-12-01T06:23:16.770Z,0
2017-12-01T06:24:26.226Z,0
2017-12-01T06:25:36.212Z,0
2017-12-01T06:26:46.197Z,0
2017-12-01T06:27:55.917Z,0
2017-12-01T06:29:05.638Z,0
2017-12-01T06:30:15.365Z,0
2017-12-01T06:31:25.405Z,0
2017-12-01T06:32:34.858Z,0
2017-12-01T06:33:44.845Z,0
2017-12-01T06:34:54.572Z,0
2017-12-01T06:36:04.300Z,0
2017-12-01T06:37:13.766Z,0
2017-12-01T06:38:23.511Z,0
2017-12-01T06:39:32.968Z,0
2017-12-01T06:40:42.955Z,0
2017-12-01T06:41:52.973Z,0
2017-12-01T06:43:02.710Z,0
2017-12-01T06:44:12.440Z,0
2017-12-01T06:45:22.164Z,0
2017-12-01T06:46:31.891Z,0
2017-12-01T06:47:41.875Z,0
2017-12-01T06:48:51.862Z,0
2017-12-01T06:50:01.591Z,0
2017-12-01T06:51:11.589Z,0
2017-12-01T06:52:20.783Z,0
2017-12-01T06:53:30.507Z,0
2017-12-01T06:54:40.232Z,0
2017-12-01T06:55:50.225Z,0
2017-12-01T06:56:59.963Z,0
2017-12-01T06:58:09.689Z,0
2017-12-01T06:59:19.417Z,0
2017-12-01T07:00:29.142Z,0
2017-12-01T07:01:39.170Z,0
2017-12-01T07:02:48.611Z,0
2017-12-01T07:03:58.334Z,0
2017-12-01T07:05:08.329Z,0
2017-12-01T07:06:18.050Z,0
2017-12-01T07:07:28.033Z,0
2017-12-01T07:08:37.490Z,0
2017-12-01T07:09:47.214Z,0
2017-12-01T07:10:56.943Z,0
2017-12-01T07:12:06.677Z,0
2017-12-01T07:13:16.402Z,0
2017-12-01T07:14:26.401Z,0
2017-12-01T07:15:36.241Z,0
2017-12-01T07:16:45.970Z,0
2017-12-01T07:17:55.716Z,0
2017-12-01T07:19:05.171Z,0
2017-12-01T07:20:15.163Z,0
2017-12-01T07:21:24.909Z,0
2017-12-01T07:22:34.903Z,0
2017-12-01T07:23:44.888Z,0
2017-12-01T07:24:54.604Z,0
2017-12-01T07:26:04.324Z,0
2017-12-01T07:27:14.316Z,0
2017-12-01T07:28:24.112Z,0
2017-12-01T07:29:34.099Z,0
2017-12-01T07:30:43.826Z,0
2017-12-01T07:31:53.814Z,0
2017-12-01T07:33:03.800Z,0
2017-12-01T07:34:13.523Z,0
2017-12-01T07:35:23.511Z,0
2017-12-01T07:36:33.241Z,0
2017-12-01T07:37:42.435Z,0
2017-12-01T07:38:51.361Z,0
2017-12-01T07:40:01.088Z,0
2017-12-01T07:41:10.556Z,0
2017-12-01T07:42:20.553Z,0
2017-12-01T07:43:30.545Z,0
2017-12-01T07:44:40.545Z,0
2017-12-01T07:45:50.541Z,5
2017-12-01T07:47:00.004Z,0
2017-12-01T07:48:10.054Z,0
2017-12-01T07:49:19.777Z,5
2017-12-01T07:50:29.528Z,5
2017-12-01T07:51:39.644Z,5
2017-12-01T07:52:49.684Z,5
2017-12-01T07:53:59.404Z,5
2017-12-01T07:55:09.397Z,5
2017-12-01T07:56:18.854Z,5
2017-12-01T07:57:28.577Z,5
2017-12-01T07:58:38.580Z,5
2017-12-01T07:59:48.041Z,5
2017-12-01T08:00:57.225Z,5
2017-12-01T08:02:06.950Z,5
2017-12-01T08:03:16.678Z,5
2017-12-01T08:04:26.436Z,5
2017-12-01T08:05:36.425Z,10
2017-12-01T08:06:45.886Z,10
2017-12-01T08:07:55.626Z,10
2017-12-01T08:09:05.352Z,10
2017-12-01T08:10:15.368Z,10
2017-12-01T08:11:25.121Z,10
2017-12-01T08:12:34.314Z,10
2017-12-01T08:13:44.350Z,15
2017-12-01T08:14:54.419Z,15
2017-12-01T08:16:04.421Z,15
2017-12-01T08:17:14.141Z,15
2017-12-01T08:18:23.610Z,15
2017-12-01T08:19:33.659Z,15
2017-12-01T08:20:43.670Z,15
2017-12-01T08:21:53.125Z,15
2017-12-01T08:23:03.180Z,15
2017-12-01T08:24:12.907Z,15
2017-12-01T08:25:22.902Z,10
2017-12-01T08:26:32.761Z,10
2017-12-01T08:27:42.272Z,15
2017-12-01T08:28:52.255Z,15
2017-12-01T08:30:01.717Z,15
2017-12-01T08:31:11.179Z,10
2017-12-01T08:32:21.172Z,15
2017-12-01T08:33:31.176Z,15
2017-12-01T08:34:40.632Z,15
2017-12-01T08:35:50.624Z,20
2017-12-01T08:37:00.091Z,25
2017-12-01T08:38:10.085Z,25
2017-12-01T08:39:20.086Z,20
2017-12-01T08:40:30.087Z,20
2017-12-01T08:41:39.813Z,15
2017-12-01T08:42:49.806Z,15
2017-12-01T08:43:59.269Z,15
2017-12-01T08:45:09.003Z,15
2017-12-01T08:46:19.000Z,15
2017-12-01T08:47:28.733Z,10
2017-12-01T08:48:38.725Z,10
2017-12-01T08:49:48.713Z,10
2017-12-01T08:50:58.457Z,10
2017-12-01T08:52:07.641Z,10
2017-12-01T08:53:17.368Z,15
2017-12-01T08:54:26.966Z,20
2017-12-01T08:55:36.699Z,25
2017-12-01T08:56:46.695Z,25
2017-12-01T08:57:56.541Z,35
2017-12-01T08:59:06.535Z,35
2017-12-01T09:00:16.261Z,40
2017-12-01T09:01:25.522Z,40
2017-12-01T09:02:35.260Z,40
2017-12-01T09:03:44.722Z,45
2017-12-01T09:04:54.447Z,40
2017-12-01T09:06:04.173Z,40
2017-12-01T09:07:13.639Z,40
2017-12-01T09:08:23.629Z,40
2017-12-01T09:09:33.365Z,40
2017-12-01T09:10:43.085Z,45
2017-12-01T09:11:52.812Z,45
2017-12-01T09:13:02.832Z,45
2017-12-01T09:14:12.580Z,45
2017-12-01T09:15:21.767Z,45
2017-12-01T09:16:31.709Z,50
2017-12-01T09:17:41.773Z,50
2017-12-01T09:18:51.345Z,50
2017-12-01T09:20:01.248Z,50
2017-12-01T09:21:11.144Z,50
2017-12-01T09:22:20.972Z,45
2017-12-01T09:23:30.941Z,45
2017-12-01T09:24:40.969Z,45
2017-12-01T09:25:50.807Z,45
2017-12-01T09:27:00.574Z,45
2017-12-01T09:28:10.386Z,45
2017-12-01T09:29:20.211Z,45
2017-12-01T09:30:29.702Z,45
2017-12-01T09:31:39.700Z,45
2017-12-01T09:32:49.546Z,40
2017-12-01T09:33:59.619Z,40
2017-12-01T09:35:09.626Z,40
2017-12-01T09:36:19.698Z,40
2017-12-01T09:37:29.699Z,40
2017-12-01T09:38:39.554Z,40
2017-12-01T09:39:49.384Z,45
2017-12-01T09:40:59.252Z,45
2017-12-01T09:42:09.293Z,45
2017-12-01T09:43:19.325Z,45
2017-12-01T09:44:29.099Z,45
2017-12-01T09:45:39.089Z,50
2017-12-01T09:46:48.551Z,45
2017-12-01T09:47:58.009Z,45
2017-12-01T09:49:08.002Z,40
2017-12-01T09:50:17.805Z,35
2017-12-01T09:51:27.811Z,35
2017-12-01T09:52:37.877Z,45
2017-12-01T09:53:47.347Z,50
2017-12-01T09:54:56.811Z,50
2017-12-01T09:56:06.585Z,50
2017-12-01T09:57:16.310Z,50
2017-12-01T09:58:25.767Z,50
2017-12-01T09:59:35.227Z,50
2017-12-01T10:00:45.223Z,55
2017-12-01T10:01:54.806Z,55
2017-12-01T10:03:04.513Z,60
2017-12-01T10:04:14.516Z,60
2017-12-01T10:05:24.251Z,55
2017-12-01T10:06:33.977Z,50
2017-12-01T10:07:43.961Z,45
2017-12-01T10:08:53.958Z,45
2017-12-01T10:10:03.416Z,45
2017-12-01T10:11:12.611Z,45
2017-12-01T10:12:22.348Z,40
2017-12-01T10:13:32.351Z,35
2017-12-01T10:14:42.404Z,35
2017-12-01T10:15:52.158Z,40
2017-12-01T10:17:01.727Z,40
2017-12-01T10:18:11.740Z,30
2017-12-01T10:19:21.202Z,35
2017-12-01T10:20:30.943Z,35
2017-12-01T10:21:40.949Z,30
2017-12-01T10:22:50.676Z,25
2017-12-01T10:24:00.702Z,25
2017-12-01T10:25:10.444Z,30
2017-12-01T10:26:20.459Z,30
2017-12-01T10:27:30.454Z,30
2017-12-01T10:28:40.253Z,25
2017-12-01T10:29:50.404Z,25
2017-12-01T10:31:00.130Z,25
2017-12-01T10:32:09.334Z,30
2017-12-01T10:33:19.329Z,30
2017-12-01T10:34:29.000Z,30
2017-12-01T10:35:39.173Z,30
2017-12-01T10:36:49.213Z,35
2017-12-01T10:37:58.971Z,40
2017-12-01T10:39:08.983Z,50
2017-12-01T10:40:19.150Z,50
2017-12-01T10:41:28.883Z,50
2017-12-01T10:42:38.651Z,55
2017-12-01T10:43:48.728Z,55
2017-12-01T10:44:58.738Z,55
2017-12-01T10:46:08.274Z,55
2017-12-01T10:47:18.275Z,50
2017-12-01T10:48:28.010Z,55
2017-12-01T10:49:38.000Z,50
2017-12-01T10:50:48.052Z,55
2017-12-01T10:51:57.814Z,50
2017-12-01T10:53:07.566Z,35
2017-12-01T10:54:17.396Z,30
2017-12-01T10:55:27.393Z,30
2017-12-01T10:56:36.910Z,25
2017-12-01T10:57:46.930Z,25
2017-12-01T10:58:56.429Z,25
2017-12-01T11:00:06.462Z,25
2017-12-01T11:01:16.213Z,20
2017-12-01T11:02:25.426Z,25
2017-12-01T11:03:35.208Z,25
2017-12-01T11:04:44.445Z,25
2017-12-01T11:05:54.441Z,30
2017-12-01T11:07:04.589Z,35
2017-12-01T11:08:14.614Z,40
2017-12-01T11:09:24.345Z,40
2017-12-01T11:10:34.351Z,40
2017-12-01T11:11:43.542Z,40
2017-12-01T11:12:53.277Z,50
2017-12-01T11:14:03.053Z,60
2017-12-01T11:15:13.126Z,65
2017-12-01T11:16:22.894Z,70
2017-12-01T11:17:32.089Z,70
2017-12-01T11:18:41.822Z,65
2017-12-01T11:19:51.552Z,60
2017-12-01T11:21:01.178Z,65
2017-12-01T11:22:10.923Z,65
2017-12-01T11:23:20.689Z,55
2017-12-01T11:24:31.050Z,55
2017-12-01T11:25:40.793Z,55
2017-12-01T11:26:50.569Z,60
2017-12-01T11:28:00.573Z,50
2017-12-01T11:29:10.301Z,35
2017-12-01T11:30:20.298Z,25
2017-12-01T11:31:30.089Z,25
2017-12-01T11:32:39.286Z,25
2017-12-01T11:33:49.010Z,30
2017-12-01T11:34:58.846Z,35
2017-12-01T11:36:08.055Z,40
2017-12-01T11:37:17.795Z,40
2017-12-01T11:38:28.807Z,45
2017-12-01T11:39:39.229Z,55
2017-12-01T11:40:48.820Z,60
2017-12-01T11:41:58.548Z,55
2017-12-01T11:43:08.015Z,55
2017-12-01T11:44:18.060Z,55
2017-12-01T11:45:27.828Z,60
2017-12-01T11:46:36.960Z,60
2017-12-01T11:47:46.927Z,60
2017-12-01T11:48:56.761Z,60
2017-12-01T11:50:06.552Z,55
2017-12-01T11:51:16.012Z,60
2017-12-01T11:52:26.006Z,60
2017-12-01T11:53:35.737Z,60
2017-12-01T11:54:45.747Z,55
2017-12-01T11:55:55.555Z,55
2017-12-01T11:57:05.300Z,55
2017-12-01T11:58:15.291Z,55
2017-12-01T11:59:25.022Z,55
2017-12-01T12:00:35.021Z,55
2017-12-01T12:01:44.809Z,55
2017-12-01T12:02:54.535Z,60
2017-12-01T12:04:04.077Z,60
2017-12-01T12:05:13.536Z,60
2017-12-01T12:06:23.264Z,60
2017-12-01T12:07:33.260Z,55
2017-12-01T12:08:43.243Z,55
2017-12-01T12:09:52.707Z,55
2017-12-01T12:11:02.217Z,60
2017-12-01T12:12:11.956Z,60
2017-12-01T12:13:21.719Z,60
2017-12-01T12:14:31.706Z,60
2017-12-01T12:15:41.171Z,60
2017-12-01T12:16:50.893Z,60
2017-12-01T12:18:00.622Z,60
2017-12-01T12:19:10.349Z,60
2017-12-01T12:20:20.106Z,60
2017-12-01T12:21:30.099Z,60
2017-12-01T12:22:40.148Z,60
2017-12-01T12:23:49.601Z,60
2017-12-01T12:24:58.794Z,65
2017-12-01T12:26:08.521Z,65
2017-12-01T12:27:18.507Z,65
2017-12-01T12:28:28.254Z,65
2017-12-01T12:29:38.287Z,65
2017-12-01T12:30:48.318Z,65
2017-12-01T12:31:58.149Z,65
2017-12-01T12:33:07.935Z,65
2017-12-01T12:34:17.686Z,65
2017-12-01T12:35:27.181Z,65
2017-12-01T12:36:36.971Z,65
2017-12-01T12:37:47.056Z,65
2017-12-01T12:38:56.796Z,65
2017-12-01T12:40:06.870Z,70
2017-12-01T12:41:16.885Z,70
2017-12-01T12:42:26.908Z,70
2017-12-01T12:43:36.364Z,85
2017-12-01T12:44:46.383Z,95
2017-12-01T12:45:56.322Z,70
2017-12-01T12:47:05.929Z,70
2017-12-01T12:48:16.057Z,70
2017-12-01T12:49:26.076Z,70
2017-12-01T12:50:36.144Z,70
2017-12-01T12:51:45.917Z,70
2017-12-01T12:52:55.379Z,85
2017-12-01T12:54:05.171Z,70
2017-12-01T12:55:15.180Z,70
2017-12-01T12:56:25.263Z,70
2017-12-01T12:57:35.252Z,70
2017-12-01T12:58:45.244Z,70
2017-12-01T12:59:55.261Z,70
2017-12-01T13:01:04.997Z,80
2017-12-01T13:02:15.017Z,65
2017-12-01T13:03:24.764Z,70
2017-12-01T13:04:34.777Z,95
2017-12-01T13:05:44.801Z,75
2017-12-01T13:06:54.275Z,65
2017-12-01T13:08:04.017Z,65
2017-12-01T13:09:14.153Z,65
2017-12-01T13:10:24.198Z,60
2017-12-01T13:11:34.271Z,60
2017-12-01T13:12:44.051Z,55
2017-12-01T13:13:53.559Z,60
2017-12-01T13:15:03.444Z,55
2017-12-01T13:16:12.684Z,55
2017-12-01T13:17:22.282Z,50
2017-12-01T13:18:31.747Z,40
2017-12-01T13:19:41.535Z,40
2017-12-01T13:20:51.271Z,35
2017-12-01T13:22:01.001Z,35
2017-12-01T13:23:10.484Z,35
2017-12-01T13:24:20.572Z,35
2017-12-01T13:25:30.572Z,35
2017-12-01T13:26:40.339Z,40
2017-12-01T13:27:50.094Z,40
2017-12-01T13:28:59.823Z,40
2017-12-01T13:30:09.593Z,40
2017-12-01T13:31:19.614Z,40
2017-12-01T13:32:29.683Z,40
2017-12-01T13:33:39.789Z,40
2017-12-01T13:34:49.295Z,35
2017-12-01T13:35:59.367Z,35
2017-12-01T13:37:08.585Z,35
2017-12-01T13:38:18.327Z,35
2017-12-01T13:39:27.836Z,35
2017-12-01T13:40:37.904Z,30
2017-12-01T13:41:47.366Z,30
2017-12-01T13:42:57.170Z,30
2017-12-01T13:44:06.366Z,30
2017-12-01T13:45:16.120Z,35
2017-12-01T13:46:25.319Z,35
2017-12-01T13:47:35.052Z,35
2017-12-01T13:48:44.945Z,35
2017-12-01T13:49:55.009Z,35
2017-12-01T13:51:04.835Z,35
2017-12-01T13:52:14.712Z,35
2017-12-01T13:53:24.775Z,35
2017-12-01T13:54:34.837Z,35
2017-12-01T13:55:44.053Z,35
2017-12-01T13:56:54.091Z,35
2017-12-01T13:58:03.566Z,30
2017-12-01T13:59:13.298Z,30
2017-12-01T14:00:23.298Z,30
2017-12-01T14:01:33.519Z,25
2017-12-01T14:02:43.046Z,25
2017-12-01T14:03:52.775Z,25
2017-12-01T14:05:02.528Z,25
2017-12-01T14:06:12.262Z,25
2017-12-01T14:07:22.313Z,20
2017-12-01T14:08:32.305Z,20
2017-12-01T14:09:42.037Z,20
2017-12-01T14:10:51.766Z,20
2017-12-01T14:12:01.226Z,15
2017-12-01T14:13:11.223Z,15
2017-12-01T14:14:21.221Z,15
2017-12-01T14:15:30.715Z,15
2017-12-01T14:16:40.478Z,10
2017-12-01T14:17:50.651Z,10
2017-12-01T14:19:00.390Z,10
2017-12-01T14:20:10.143Z,10
2017-12-01T14:21:19.939Z,10
2017-12-01T14:22:29.706Z,10
2017-12-01T14:23:39.448Z,5
2017-12-01T14:24:49.229Z,5
2017-12-01T14:25:58.991Z,5
2017-12-01T14:27:08.994Z,5
2017-12-01T14:28:18.192Z,5
2017-12-01T14:29:27.921Z,10
2017-12-01T14:30:37.124Z,10
2017-12-01T14:31:46.811Z,10
2017-12-01T14:32:57.392Z,10
2017-12-01T14:34:07.299Z,10
2017-12-01T14:35:17.146Z,10
2017-12-01T14:36:27.277Z,10
2017-12-01T14:37:37.109Z,10
2017-12-01T14:38:46.306Z,10
2017-12-01T14:39:56.050Z,10
2017-12-01T14:41:06.050Z,10
2017-12-01T14:42:15.586Z,10
2017-12-01T14:43:25.599Z,10
2017-12-01T14:44:35.640Z,10
2017-12-01T14:45:45.104Z,10
2017-12-01T14:46:55.102Z,10
2017-12-01T14:48:05.106Z,10
2017-12-01T14:49:15.108Z,10
2017-12-01T14:50:24.887Z,10
2017-12-01T14:51:34.625Z,10
2017-12-01T14:52:44.372Z,5
2017-12-01T14:53:54.098Z,5
2017-12-01T14:55:04.209Z,5
2017-12-01T14:56:14.207Z,5
2017-12-01T14:57:23.667Z,5
2017-12-01T14:58:33.487Z,5
2017-12-01T14:59:42.557Z,5
2017-12-01T15:00:52.669Z,5
2017-12-01T15:02:03.040Z,5
2017-12-01T15:03:12.873Z,5
2017-12-01T15:04:22.709Z,5
2017-12-01T15:05:32.304Z,5
2017-12-01T15:06:42.721Z,5
2017-12-01T15:07:52.256Z,0
2017-12-01T15:09:02.150Z,0
2017-12-01T15:10:12.072Z,0
2017-12-01T15:11:21.894Z,0
2017-12-01T15:12:31.220Z,0
2017-12-01T15:13:41.060Z,0
2017-12-01T15:14:50.721Z,0
2017-12-01T15:16:00.260Z,0
2017-12-01T15:17:09.889Z,0
2017-12-01T15:18:19.159Z,0
2017-12-01T15:19:28.679Z,0
2017-12-01T15:20:38.496Z,0
2017-12-01T15:21:47.836Z,0
2017-12-01T15:22:57.351Z,0
2017-12-01T15:24:07.397Z,0
2017-12-01T15:25:16.935Z,0
2017-12-01T15:26:26.848Z,0
2017-12-01T15:27:36.588Z,0
2017-12-01T15:28:46.669Z,0
2017-12-01T15:29:56.259Z,0
2017-12-01T15:31:05.563Z,0
2017-12-01T15:32:16.106Z,0
2017-12-01T15:33:26.007Z,0
2017-12-01T15:34:36.272Z,0
2017-12-01T15:35:46.070Z,0
2017-12-01T15:36:55.834Z,0
2017-12-01T15:38:05.596Z,0
2017-12-01T15:39:15.633Z,0
2017-12-01T15:40:25.655Z,0
2017-12-01T15:41:35.496Z,0
2017-12-01T15:42:45.599Z,0
2017-12-01T15:43:55.345Z,0
2017-12-01T15:45:04.115Z,0
2017-12-01T15:46:13.918Z,0
2017-12-01T15:47:23.443Z,0
2017-12-01T15:48:33.191Z,0
2017-12-01T15:49:42.661Z,0
2017-12-01T15:50:52.423Z,0
2017-12-01T15:52:02.206Z,0
2017-12-01T15:53:12.112Z,0
2017-12-01T15:54:22.224Z,0
2017-12-01T15:55:31.986Z,0
2017-12-01T15:56:41.709Z,0
2017-12-01T15:57:51.445Z,0
2017-12-01T15:59:01.279Z,0
2017-12-01T16:00:11.306Z,0
2017-12-01T16:01:21.545Z,0
2017-12-01T16:02:31.556Z,0
2017-12-01T16:03:41.333Z,0
2017-12-01T16:04:51.326Z,0
2017-12-01T16:06:00.546Z,0
2017-12-01T16:07:10.537Z,0
2017-12-01T16:08:20.576Z,0
2017-12-01T16:09:30.712Z,0
2017-12-01T16:10:40.448Z,0
2017-12-01T16:11:50.439Z,0
2017-12-01T16:13:00.170Z,0
2017-12-01T16:14:09.923Z,0
2017-12-01T16:15:19.918Z,0
2017-12-01T16:16:29.653Z,0
2017-12-01T16:17:39.399Z,0
2017-12-01T16:18:49.402Z,0
2017-12-01T16:19:59.273Z,0
2017-12-01T16:21:09.069Z,0
2017-12-01T16:22:18.561Z,0
2017-12-01T16:23:27.770Z,0
2017-12-01T16:24:37.536Z,0
2017-12-01T16:25:47.271Z,0
2017-12-01T16:26:57.007Z,0
2017-12-01T16:28:06.786Z,0
2017-12-01T16:29:16.594Z,0
2017-12-01T16:30:26.147Z,0
2017-12-01T16:31:35.343Z,0
2017-12-01T16:33:00.225Z,0
2017-12-01T16:34:18.554Z,0
2017-12-01T16:35:27.771Z,0
2017-12-01T16:36:37.264Z,0
2017-12-01T16:37:46.762Z,0
2017-12-01T16:38:56.773Z,0
2017-12-01T16:40:06.407Z,0
2017-12-01T16:41:15.951Z,0
2017-12-01T16:42:25.411Z,0
2017-12-01T16:43:35.145Z,0
2017-12-01T16:44:45.144Z,0
2017-12-01T16:45:54.923Z,0
2017-12-01T16:47:04.264Z,0
2017-12-01T16:48:14.280Z,0
2017-12-01T16:49:24.062Z,0
2017-12-01T16:50:33.852Z,0
2017-12-01T16:51:43.325Z,0
2017-12-01T16:52:52.916Z,0
2017-12-01T16:54:02.391Z,0
2017-12-01T16:55:11.850Z,0
2017-12-01T16:56:21.471Z,0
2017-12-01T16:57:31.220Z,0